Portada
METAR-TAF:

METAR-TAF

Aeropuertos :

Hebron Municipal Airport

Hebron, Nebraska, Estados Unidos

latitud: 40-09-08N, longitud: 097-35-13W, altitud: 447 m

Observación

El informe se hizo hace 28 minutos, a las 05:55 UTC
Viento 12 kt del sur con ráfagas de 18 kt
Temperatura 27°C
Humedad 70%
Presión 1011 hPa
Visibilidad: 16.1 km
Cielo despejado

METAR: KHJH 070555Z AUTO 17012G18KT 10SM CLR 27/21 A2985 RMK AO2 T02730210 10341 20273 403580222

Hora: 01:23 (06:23 UTC)


TAF: falta

Observaciones y pronósticos meteorológicos de más de 4000 aeropuertos (mensajes METAR y TAF).

Los puntos amarillos y rojos representan las estaciones disponibles.

Ponga el ratón en el punto deseado para ver el nombre de la estación.

Haga clic para ver las observaciones y los pronósticos meteorológicos.

Para cambiar el mapa : haga clic en los botones verdes con una cruz de color negro para hacer un zoom, en el botón verde con un guión para alejar o en las flechas verdes para mapas adyacentes.


METAR-TAF: